Terminal Aerodrome Forecast
Issued by NWS

Home | Current Version | Previous Version | Text Only | Print | Product List | Glossary On
Versions: 1 2 3 4 5 6 7 8 9 10 11 12 13 14
000
FTUS43 KOAX 031126
TAFSNY
TAF
KSNY 031126Z 0312/0412 26008KT P6SM SCT120
     FM032300 26010KT P6SM -SHRA VCTS SCT070CB BKN110
     FM040400 30006KT P6SM BKN120=

USA.gov is the U.S. government's official web portal to all federal, state and local government web resources and services.